sensor_id;sensor_type;location;lat;lon;timestamp;pressure;altitude;pressure_sealevel;temperature;humidity
76519;BME280;67029;51.054;13.798;2023-07-29T00:00:21;99697.90;;;24.73;53.00
76519;BME280;67029;51.054;13.798;2023-07-29T00:02:51;99697.19;;;24.72;53.01
76519;BME280;67029;51.054;13.798;2023-07-29T00:05:21;99691.61;;;24.69;53.12
76519;BME280;67029;51.054;13.798;2023-07-29T00:07:51;99693.14;;;24.67;53.13
76519;BME280;67029;51.054;13.798;2023-07-29T00:10:21;99692.56;;;24.66;53.17
76519;BME280;67029;51.054;13.798;2023-07-29T00:12:51;99693.91;;;24.63;53.21
76519;BME280;67029;51.054;13.798;2023-07-29T00:15:21;99688.76;;;24.58;53.34
76519;BME280;67029;51.054;13.798;2023-07-29T00:17:51;99690.70;;;24.56;53.39
76519;BME280;67029;51.054;13.798;2023-07-29T00:20:21;99689.44;;;24.52;53.53
76519;BME280;67029;51.054;13.798;2023-07-29T00:22:51;99689.77;;;24.49;53.52
76519;BME280;67029;51.054;13.798;2023-07-29T00:25:21;99688.86;;;24.49;53.57
76519;BME280;67029;51.054;13.798;2023-07-29T00:27:51;99684.08;;;24.47;53.51
76519;BME280;67029;51.054;13.798;2023-07-29T00:30:21;99688.16;;;24.47;53.50
76519;BME280;67029;51.054;13.798;2023-07-29T00:32:51;99684.35;;;24.45;53.55
76519;BME280;67029;51.054;13.798;2023-07-29T00:35:21;99681.03;;;24.44;53.54
76519;BME280;67029;51.054;13.798;2023-07-29T00:37:51;99676.86;;;24.39;53.68
76519;BME280;67029;51.054;13.798;2023-07-29T00:40:22;99681.18;;;24.38;53.71
76519;BME280;67029;51.054;13.798;2023-07-29T00:42:52;99684.79;;;24.35;53.75
76519;BME280;67029;51.054;13.798;2023-07-29T00:45:25;99676.62;;;24.32;53.85
76519;BME280;67029;51.054;13.798;2023-07-29T00:47:52;99680.05;;;24.29;53.95
76519;BME280;67029;51.054;13.798;2023-07-29T00:50:23;99680.22;;;24.27;54.05
76519;BME280;67029;51.054;13.798;2023-07-29T00:52:54;99680.05;;;24.27;54.05
76519;BME280;67029;51.054;13.798;2023-07-29T00:55:24;99674.45;;;24.28;54.00
76519;BME280;67029;51.054;13.798;2023-07-29T00:57:54;99670.25;;;24.27;54.09
76519;BME280;67029;51.054;13.798;2023-07-29T01:00:24;99669.73;;;24.26;54.13
76519;BME280;67029;51.054;13.798;2023-07-29T01:02:54;99671.75;;;24.26;54.12
76519;BME280;67029;51.054;13.798;2023-07-29T01:05:30;99673.95;;;24.26;54.13
76519;BME280;67029;51.054;13.798;2023-07-29T01:08:06;99670.82;;;24.23;54.24
76519;BME280;67029;51.054;13.798;2023-07-29T01:10:46;99669.59;;;24.20;54.34
76519;BME280;67029;51.054;13.798;2023-07-29T01:15:45;99672.71;;;24.17;54.35
76519;BME280;67029;51.054;13.798;2023-07-29T01:18:04;99668.38;;;24.15;54.39
76519;BME280;67029;51.054;13.798;2023-07-29T01:20:32;99664.56;;;24.13;54.51
76519;BME280;67029;51.054;13.798;2023-07-29T01:22:58;99660.52;;;24.12;54.55
76519;BME280;67029;51.054;13.798;2023-07-29T01:25:28;99658.44;;;24.06;54.63
76519;BME280;67029;51.054;13.798;2023-07-29T01:27:58;99658.27;;;24.07;54.62
76519;BME280;67029;51.054;13.798;2023-07-29T01:30:35;99655.27;;;24.04;54.70
76519;BME280;67029;51.054;13.798;2023-07-29T01:33:10;99652.55;;;24.03;54.75
76519;BME280;67029;51.054;13.798;2023-07-29T01:35:33;99653.58;;;23.97;54.90
76519;BME280;67029;51.054;13.798;2023-07-29T01:38:03;99650.80;;;23.95;54.91
76519;BME280;67029;51.054;13.798;2023-07-29T01:40:30;99647.59;;;23.96;54.87
76519;BME280;67029;51.054;13.798;2023-07-29T01:43:00;99644.95;;;23.97;54.84
76519;BME280;67029;51.054;13.798;2023-07-29T01:45:30;99643.83;;;23.94;54.90
76519;BME280;67029;51.054;13.798;2023-07-29T01:48:00;99647.45;;;23.94;54.91
76519;BME280;67029;51.054;13.798;2023-07-29T01:50:30;99648.70;;;23.93;54.93
76519;BME280;67029;51.054;13.798;2023-07-29T01:53:00;99652.61;;;23.93;54.94
76519;BME280;67029;51.054;13.798;2023-07-29T01:55:30;99651.41;;;23.90;54.95
76519;BME280;67029;51.054;13.798;2023-07-29T01:58:00;99648.56;;;23.76;55.26
76519;BME280;67029;51.054;13.798;2023-07-29T02:00:30;99650.62;;;23.76;55.29
76519;BME280;67029;51.054;13.798;2023-07-29T02:03:00;99652.62;;;23.75;55.35
76519;BME280;67029;51.054;13.798;2023-07-29T02:05:30;99651.23;;;23.74;55.35
76519;BME280;67029;51.054;13.798;2023-07-29T02:08:00;99647.59;;;23.77;55.25
76519;BME280;67029;51.054;13.798;2023-07-29T02:10:30;99650.14;;;23.79;55.19
76519;BME280;67029;51.054;13.798;2023-07-29T02:13:00;99651.19;;;23.75;55.29
76519;BME280;67029;51.054;13.798;2023-07-29T02:15:30;99653.77;;;23.73;55.34
76519;BME280;67029;51.054;13.798;2023-07-29T02:18:00;99661.91;;;23.71;55.41
76519;BME280;67029;51.054;13.798;2023-07-29T02:20:30;99661.43;;;23.68;55.47
76519;BME280;67029;51.054;13.798;2023-07-29T02:23:00;99657.04;;;23.66;55.52
76519;BME280;67029;51.054;13.798;2023-07-29T02:25:30;99654.69;;;23.66;55.44
76519;BME280;67029;51.054;13.798;2023-07-29T02:28:00;99652.38;;;23.63;55.55
76519;BME280;67029;51.054;13.798;2023-07-29T02:30:31;99655.16;;;23.58;55.60
76519;BME280;67029;51.054;13.798;2023-07-29T02:33:00;99657.52;;;23.56;55.67
76519;BME280;67029;51.054;13.798;2023-07-29T02:35:31;99660.15;;;23.56;55.65
76519;BME280;67029;51.054;13.798;2023-07-29T02:38:00;99659.84;;;23.53;55.73
76519;BME280;67029;51.054;13.798;2023-07-29T02:40:31;99665.53;;;23.53;55.70
76519;BME280;67029;51.054;13.798;2023-07-29T02:43:01;99668.61;;;23.48;55.88
76519;BME280;67029;51.054;13.798;2023-07-29T02:45:31;99672.45;;;23.45;55.96
76519;BME280;67029;51.054;13.798;2023-07-29T02:48:01;99672.36;;;23.42;56.06
76519;BME280;67029;51.054;13.798;2023-07-29T02:50:31;99673.27;;;23.35;56.20
76519;BME280;67029;51.054;13.798;2023-07-29T02:53:01;99676.28;;;23.34;56.22
76519;BME280;67029;51.054;13.798;2023-07-29T02:55:31;99675.11;;;23.33;56.28
76519;BME280;67029;51.054;13.798;2023-07-29T02:58:01;99680.19;;;23.34;56.33
76519;BME280;67029;51.054;13.798;2023-07-29T03:00:33;99685.64;;;23.34;56.36
76519;BME280;67029;51.054;13.798;2023-07-29T03:03:01;99684.12;;;23.32;56.35
76519;BME280;67029;51.054;13.798;2023-07-29T03:05:31;99686.92;;;23.29;56.42
76519;BME280;67029;51.054;13.798;2023-07-29T03:08:01;99686.47;;;23.31;56.43
76519;BME280;67029;51.054;13.798;2023-07-29T03:10:31;99687.89;;;23.29;56.45
76519;BME280;67029;51.054;13.798;2023-07-29T03:13:02;99685.73;;;23.30;56.50
76519;BME280;67029;51.054;13.798;2023-07-29T03:15:32;99686.41;;;23.31;56.50
76519;BME280;67029;51.054;13.798;2023-07-29T03:18:02;99690.33;;;23.31;56.57
76519;BME280;67029;51.054;13.798;2023-07-29T03:20:32;99690.67;;;23.31;56.63
76519;BME280;67029;51.054;13.798;2023-07-29T03:23:02;99687.91;;;23.30;56.73
76519;BME280;67029;51.054;13.798;2023-07-29T03:25:32;99693.31;;;23.32;56.82
76519;BME280;67029;51.054;13.798;2023-07-29T03:28:02;99694.70;;;23.32;56.83
76519;BME280;67029;51.054;13.798;2023-07-29T03:30:32;99693.96;;;23.32;56.83
76519;BME280;67029;51.054;13.798;2023-07-29T03:33:02;99687.92;;;23.27;57.08
76519;BME280;67029;51.054;13.798;2023-07-29T03:35:32;99685.48;;;23.29;57.03
76519;BME280;67029;51.054;13.798;2023-07-29T03:38:02;99683.56;;;23.34;56.91
76519;BME280;67029;51.054;13.798;2023-07-29T03:40:32;99680.00;;;23.35;56.91
76519;BME280;67029;51.054;13.798;2023-07-29T03:43:02;99678.76;;;23.37;56.90
76519;BME280;67029;51.054;13.798;2023-07-29T03:45:35;99673.98;;;23.39;56.91
76519;BME280;67029;51.054;13.798;2023-07-29T03:48:03;99675.19;;;23.43;56.81
76519;BME280;67029;51.054;13.798;2023-07-29T03:50:35;99674.81;;;23.41;56.82
76519;BME280;67029;51.054;13.798;2023-07-29T03:53:05;99670.66;;;23.45;56.70
76519;BME280;67029;51.054;13.798;2023-07-29T03:55:34;99671.02;;;23.47;56.72
76519;BME280;67029;51.054;13.798;2023-07-29T03:58:05;99671.38;;;23.49;56.69
76519;BME280;67029;51.054;13.798;2023-07-29T04:00:35;99675.50;;;23.48;56.77
76519;BME280;67029;51.054;13.798;2023-07-29T04:03:05;99674.64;;;23.49;56.83
76519;BME280;67029;51.054;13.798;2023-07-29T04:05:35;99676.84;;;23.52;56.79
76519;BME280;67029;51.054;13.798;2023-07-29T04:08:05;99669.68;;;23.54;56.80
76519;BME280;67029;51.054;13.798;2023-07-29T04:10:35;99672.09;;;23.54;56.83
76519;BME280;67029;51.054;13.798;2023-07-29T04:13:05;99669.38;;;23.59;56.70
76519;BME280;67029;51.054;13.798;2023-07-29T04:15:35;99668.93;;;23.64;56.59
76519;BME280;67029;51.054;13.798;2023-07-29T04:18:05;99672.36;;;23.68;56.52
76519;BME280;67029;51.054;13.798;2023-07-29T04:20:35;99674.80;;;23.73;56.54
76519;BME280;67029;51.054;13.798;2023-07-29T04:23:05;99674.67;;;23.77;56.54
76519;BME280;67029;51.054;13.798;2023-07-29T04:25:35;99675.80;;;23.81;56.50
76519;BME280;67029;51.054;13.798;2023-07-29T04:28:05;99672.73;;;23.88;56.45
76519;BME280;67029;51.054;13.798;2023-07-29T04:30:35;99675.23;;;23.92;56.44
76519;BME280;67029;51.054;13.798;2023-07-29T04:33:05;99675.00;;;23.93;56.47
76519;BME280;67029;51.054;13.798;2023-07-29T04:35:35;99679.16;;;23.96;56.43
76519;BME280;67029;51.054;13.798;2023-07-29T04:38:05;99676.14;;;24.02;56.34
76519;BME280;67029;51.054;13.798;2023-07-29T04:40:35;99676.14;;;24.05;56.27
76519;BME280;67029;51.054;13.798;2023-07-29T04:43:05;99673.22;;;24.06;56.24
76519;BME280;67029;51.054;13.798;2023-07-29T04:45:35;99677.34;;;24.09;56.14
76519;BME280;67029;51.054;13.798;2023-07-29T04:48:05;99677.25;;;24.06;56.19
76519;BME280;67029;51.054;13.798;2023-07-29T04:50:35;99673.62;;;24.07;56.23
76519;BME280;67029;51.054;13.798;2023-07-29T04:53:06;99673.46;;;24.09;56.16
76519;BME280;67029;51.054;13.798;2023-07-29T04:55:35;99673.31;;;24.12;56.08
76519;BME280;67029;51.054;13.798;2023-07-29T04:58:05;99671.42;;;24.13;56.08
76519;BME280;67029;51.054;13.798;2023-07-29T05:00:36;99669.09;;;24.19;55.96
76519;BME280;67029;51.054;13.798;2023-07-29T05:03:06;99667.20;;;24.25;55.85
76519;BME280;67029;51.054;13.798;2023-07-29T05:05:36;99670.93;;;24.23;55.95
76519;BME280;67029;51.054;13.798;2023-07-29T05:08:06;99670.45;;;24.29;55.81
76519;BME280;67029;51.054;13.798;2023-07-29T05:10:36;99669.23;;;24.27;55.84
76519;BME280;67029;51.054;13.798;2023-07-29T05:13:07;99666.81;;;24.27;55.88
76519;BME280;67029;51.054;13.798;2023-07-29T05:15:36;99668.31;;;24.33;55.79
76519;BME280;67029;51.054;13.798;2023-07-29T05:18:07;99669.19;;;24.30;55.85
76519;BME280;67029;51.054;13.798;2023-07-29T05:20:37;99669.48;;;24.32;55.89
76519;BME280;67029;51.054;13.798;2023-07-29T05:23:07;99666.07;;;24.33;55.87
76519;BME280;67029;51.054;13.798;2023-07-29T05:25:37;99670.39;;;24.33;55.95
76519;BME280;67029;51.054;13.798;2023-07-29T05:28:07;99669.05;;;24.38;55.89
76519;BME280;67029;51.054;13.798;2023-07-29T05:30:37;99667.61;;;24.45;55.78
76519;BME280;67029;51.054;13.798;2023-07-29T05:33:07;99658.67;;;24.49;55.69
76519;BME280;67029;51.054;13.798;2023-07-29T05:35:37;99651.64;;;24.51;55.58
76519;BME280;67029;51.054;13.798;2023-07-29T05:38:07;99650.80;;;24.40;55.85
76519;BME280;67029;51.054;13.798;2023-07-29T05:40:37;99646.84;;;24.46;55.81
76519;BME280;67029;51.054;13.798;2023-07-29T05:43:07;99644.98;;;24.54;55.70
76519;BME280;67029;51.054;13.798;2023-07-29T05:45:37;99646.14;;;24.61;55.57
76519;BME280;67029;51.054;13.798;2023-07-29T05:48:07;99645.59;;;24.71;55.44
76519;BME280;67029;51.054;13.798;2023-07-29T05:50:37;99646.91;;;24.72;55.38
76519;BME280;67029;51.054;13.798;2023-07-29T05:53:07;99646.17;;;24.85;55.17
76519;BME280;67029;51.054;13.798;2023-07-29T05:55:37;99645.91;;;24.98;54.93
76519;BME280;67029;51.054;13.798;2023-07-29T05:58:07;99639.62;;;25.09;54.75
76519;BME280;67029;51.054;13.798;2023-07-29T06:00:37;99632.08;;;25.17;54.59
76519;BME280;67029;51.054;13.798;2023-07-29T06:03:07;99628.56;;;25.09;54.68
76519;BME280;67029;51.054;13.798;2023-07-29T06:05:37;99628.90;;;25.14;54.61
76519;BME280;67029;51.054;13.798;2023-07-29T06:08:08;99630.65;;;25.31;54.43
76519;BME280;67029;51.054;13.798;2023-07-29T06:10:38;99624.84;;;25.49;54.10
76519;BME280;67029;51.054;13.798;2023-07-29T06:13:08;99629.03;;;25.59;53.89
76519;BME280;67029;51.054;13.798;2023-07-29T06:15:38;99628.28;;;25.65;53.81
76519;BME280;67029;51.054;13.798;2023-07-29T06:18:08;99622.86;;;25.77;53.60
76519;BME280;67029;51.054;13.798;2023-07-29T06:20:38;99619.68;;;25.86;53.30
76519;BME280;67029;51.054;13.798;2023-07-29T06:23:08;99624.48;;;25.89;53.38
76519;BME280;67029;51.054;13.798;2023-07-29T06:25:38;99629.28;;;25.99;53.03
76519;BME280;67029;51.054;13.798;2023-07-29T06:28:09;99630.55;;;26.09;53.05
76519;BME280;67029;51.054;13.798;2023-07-29T06:30:38;99627.73;;;26.21;52.27
76519;BME280;67029;51.054;13.798;2023-07-29T06:33:08;99630.70;;;26.28;52.22
76519;BME280;67029;51.054;13.798;2023-07-29T06:35:38;99627.25;;;26.36;52.15
76519;BME280;67029;51.054;13.798;2023-07-29T06:38:08;99626.34;;;26.42;51.73
76519;BME280;67029;51.054;13.798;2023-07-29T06:40:38;99629.27;;;26.46;51.53
76519;BME280;67029;51.054;13.798;2023-07-29T06:43:08;99636.58;;;26.51;51.68
76519;BME280;67029;51.054;13.798;2023-07-29T06:45:38;99634.17;;;26.54;51.24
76519;BME280;67029;51.054;13.798;2023-07-29T06:48:08;99636.45;;;26.58;51.18
76519;BME280;67029;51.054;13.798;2023-07-29T06:50:38;99635.42;;;26.66;51.07
76519;BME280;67029;51.054;13.798;2023-07-29T06:53:09;99632.84;;;26.73;50.92
76519;BME280;67029;51.054;13.798;2023-07-29T06:55:39;99632.28;;;26.76;50.88
76519;BME280;67029;51.054;13.798;2023-07-29T06:58:09;99631.11;;;26.92;50.76
76519;BME280;67029;51.054;13.798;2023-07-29T07:00:39;99635.22;;;27.07;50.56
76519;BME280;67029;51.054;13.798;2023-07-29T07:03:09;99634.89;;;27.11;50.40
76519;BME280;67029;51.054;13.798;2023-07-29T07:05:39;99632.80;;;27.19;49.88
76519;BME280;67029;51.054;13.798;2023-07-29T07:08:09;99634.22;;;27.16;49.63
76519;BME280;67029;51.054;13.798;2023-07-29T07:10:39;99629.84;;;27.08;49.55
76519;BME280;67029;51.054;13.798;2023-07-29T07:13:09;99631.19;;;27.10;49.45
76519;BME280;67029;51.054;13.798;2023-07-29T07:15:39;99628.38;;;27.16;49.36
76519;BME280;67029;51.054;13.798;2023-07-29T07:18:09;99628.51;;;27.23;49.06
76519;BME280;67029;51.054;13.798;2023-07-29T07:20:39;99625.16;;;27.29;49.06
76519;BME280;67029;51.054;13.798;2023-07-29T07:23:09;99620.06;;;27.36;48.62
76519;BME280;67029;51.054;13.798;2023-07-29T07:25:39;99618.02;;;27.45;48.68
76519;BME280;67029;51.054;13.798;2023-07-29T07:28:09;99610.97;;;27.49;48.25
76519;BME280;67029;51.054;13.798;2023-07-29T07:30:40;99604.83;;;27.55;48.19
76519;BME280;67029;51.054;13.798;2023-07-29T07:33:10;99598.95;;;27.63;48.05
76519;BME280;67029;51.054;13.798;2023-07-29T07:35:40;99598.61;;;27.67;47.55
76519;BME280;67029;51.054;13.798;2023-07-29T07:38:10;99590.79;;;27.74;47.36
76519;BME280;67029;51.054;13.798;2023-07-29T07:40:40;99593.20;;;27.85;47.32
76519;BME280;67029;51.054;13.798;2023-07-29T07:43:10;99590.42;;;27.96;47.21
76519;BME280;67029;51.054;13.798;2023-07-29T07:45:40;99586.46;;;28.06;46.96
76519;BME280;67029;51.054;13.798;2023-07-29T07:48:10;99583.72;;;28.13;46.61
76519;BME280;67029;51.054;13.798;2023-07-29T07:50:41;99586.17;;;28.19;46.23
76519;BME280;67029;51.054;13.798;2023-07-29T07:53:11;99581.63;;;28.25;46.02
76519;BME280;67029;51.054;13.798;2023-07-29T07:55:41;99573.81;;;28.34;45.85
76519;BME280;67029;51.054;13.798;2023-07-29T07:58:11;99579.14;;;28.34;45.57
76519;BME280;67029;51.054;13.798;2023-07-29T08:00:41;99577.17;;;28.34;45.25
76519;BME280;67029;51.054;13.798;2023-07-29T08:03:11;99570.36;;;28.35;44.96
76519;BME280;67029;51.054;13.798;2023-07-29T08:05:41;99567.81;;;28.40;45.03
76519;BME280;67029;51.054;13.798;2023-07-29T08:08:11;99565.45;;;28.46;44.76
76519;BME280;67029;51.054;13.798;2023-07-29T08:10:41;99563.34;;;28.43;44.56
76519;BME280;67029;51.054;13.798;2023-07-29T08:13:11;99564.36;;;28.35;44.46
76519;BME280;67029;51.054;13.798;2023-07-29T08:15:45;99560.66;;;28.37;44.19
76519;BME280;67029;51.054;13.798;2023-07-29T08:18:12;99564.95;;;28.30;44.38
76519;BME280;67029;51.054;13.798;2023-07-29T08:20:56;99562.02;;;28.32;44.56
76519;BME280;67029;51.054;13.798;2023-07-29T08:23:12;99553.70;;;28.39;44.30
76519;BME280;67029;51.054;13.798;2023-07-29T08:25:42;99562.30;;;28.40;44.45
76519;BME280;67029;51.054;13.798;2023-07-29T08:28:12;99557.41;;;28.45;44.09
76519;BME280;67029;51.054;13.798;2023-07-29T08:30:42;99561.03;;;28.57;44.28
76519;BME280;67029;51.054;13.798;2023-07-29T08:33:13;99554.11;;;28.69;43.66
76519;BME280;67029;51.054;13.798;2023-07-29T08:35:43;99557.20;;;28.71;43.56
76519;BME280;67029;51.054;13.798;2023-07-29T08:38:13;99561.01;;;28.80;43.46
76519;BME280;67029;51.054;13.798;2023-07-29T08:40:57;99561.27;;;28.89;43.34
76519;BME280;67029;51.054;13.798;2023-07-29T08:43:14;99561.03;;;28.91;43.31
76519;BME280;67029;51.054;13.798;2023-07-29T08:45:44;99558.39;;;28.93;42.76
76519;BME280;67029;51.054;13.798;2023-07-29T08:48:19;99556.36;;;29.01;42.09
76519;BME280;67029;51.054;13.798;2023-07-29T08:50:45;99554.76;;;29.24;41.85
76519;BME280;67029;51.054;13.798;2023-07-29T08:53:16;99557.89;;;29.36;42.34
76519;BME280;67029;51.054;13.798;2023-07-29T08:55:45;99564.50;;;29.62;42.32
76519;BME280;67029;51.054;13.798;2023-07-29T08:58:15;99567.28;;;29.72;41.91
76519;BME280;67029;51.054;13.798;2023-07-29T09:00:46;99567.61;;;29.87;41.89
76519;BME280;67029;51.054;13.798;2023-07-29T09:03:16;99567.52;;;30.00;41.40
76519;BME280;67029;51.054;13.798;2023-07-29T09:05:46;99566.36;;;30.09;41.69
76519;BME280;67029;51.054;13.798;2023-07-29T09:08:17;99562.17;;;30.21;41.57
76519;BME280;67029;51.054;13.798;2023-07-29T09:10:47;99559.64;;;30.31;41.33
76519;BME280;67029;51.054;13.798;2023-07-29T09:13:19;99564.07;;;30.33;40.91
76519;BME280;67029;51.054;13.798;2023-07-29T09:15:48;99565.52;;;30.30;40.76
76519;BME280;67029;51.054;13.798;2023-07-29T09:18:20;99565.48;;;30.35;40.90
76519;BME280;67029;51.054;13.798;2023-07-29T09:20:49;99564.71;;;30.33;40.79
76519;BME280;67029;51.054;13.798;2023-07-29T09:23:19;99568.10;;;30.37;40.82
76519;BME280;67029;51.054;13.798;2023-07-29T09:25:49;99563.91;;;30.45;40.84
76519;BME280;67029;51.054;13.798;2023-07-29T09:28:19;99557.13;;;30.54;40.80
76519;BME280;67029;51.054;13.798;2023-07-29T09:30:49;99559.04;;;30.55;40.85
76519;BME280;67029;51.054;13.798;2023-07-29T09:33:19;99554.55;;;30.62;40.80
76519;BME280;67029;51.054;13.798;2023-07-29T09:35:49;99551.39;;;30.74;40.53
76519;BME280;67029;51.054;13.798;2023-07-29T09:38:27;99548.97;;;30.85;40.40
76519;BME280;67029;51.054;13.798;2023-07-29T09:40:49;99549.53;;;30.87;40.38
76519;BME280;67029;51.054;13.798;2023-07-29T09:43:19;99548.03;;;30.91;39.94
76519;BME280;67029;51.054;13.798;2023-07-29T09:45:51;99542.34;;;30.98;40.09
76519;BME280;67029;51.054;13.798;2023-07-29T09:48:23;99546.89;;;31.01;39.92
76519;BME280;67029;51.054;13.798;2023-07-29T09:50:51;99548.58;;;30.92;39.51
76519;BME280;67029;51.054;13.798;2023-07-29T09:53:21;99545.13;;;30.83;39.62
76519;BME280;67029;51.054;13.798;2023-07-29T09:55:53;99550.25;;;30.82;39.21
76519;BME280;67029;51.054;13.798;2023-07-29T09:58:27;99548.13;;;30.75;39.09
76519;BME280;67029;51.054;13.798;2023-07-29T10:00:52;99540.88;;;30.60;39.37
76519;BME280;67029;51.054;13.798;2023-07-29T10:03:23;99539.58;;;30.56;39.33
76519;BME280;67029;51.054;13.798;2023-07-29T10:05:52;99547.84;;;30.44;39.54
76519;BME280;67029;51.054;13.798;2023-07-29T10:08:24;99547.12;;;30.29;39.67
76519;BME280;67029;51.054;13.798;2023-07-29T10:10:54;99559.00;;;30.12;39.99
76519;BME280;67029;51.054;13.798;2023-07-29T10:13:26;99573.36;;;29.87;40.62
76519;BME280;67029;51.054;13.798;2023-07-29T10:15:54;99584.69;;;29.42;44.13
76519;BME280;67029;51.054;13.798;2023-07-29T10:18:24;99561.78;;;28.86;45.08
76519;BME280;67029;51.054;13.798;2023-07-29T10:20:57;99555.02;;;28.47;45.78
76519;BME280;67029;51.054;13.798;2023-07-29T10:23:26;99551.73;;;28.38;46.25
76519;BME280;67029;51.054;13.798;2023-07-29T10:26:03;99544.30;;;28.39;46.41
76519;BME280;67029;51.054;13.798;2023-07-29T10:28:26;99542.21;;;28.35;46.65
76519;BME280;67029;51.054;13.798;2023-07-29T10:30:56;99537.62;;;28.40;47.04
76519;BME280;67029;51.054;13.798;2023-07-29T10:33:26;99536.78;;;28.46;47.21
76519;BME280;67029;51.054;13.798;2023-07-29T10:35:56;99539.28;;;28.55;47.31
76519;BME280;67029;51.054;13.798;2023-07-29T10:38:27;99538.71;;;28.64;47.36
76519;BME280;67029;51.054;13.798;2023-07-29T10:40:57;99539.53;;;28.70;47.60
76519;BME280;67029;51.054;13.798;2023-07-29T10:43:33;99542.05;;;28.74;47.76
76519;BME280;67029;51.054;13.798;2023-07-29T10:45:58;99541.21;;;28.82;47.87
76519;BME280;67029;51.054;13.798;2023-07-29T10:48:39;99538.89;;;28.91;47.97
76519;BME280;67029;51.054;13.798;2023-07-29T10:53:30;99528.65;;;29.14;47.96
76519;BME280;67029;51.054;13.798;2023-07-29T10:55:59;99529.02;;;29.22;47.96
76519;BME280;67029;51.054;13.798;2023-07-29T10:58:29;99526.58;;;29.29;47.86
76519;BME280;67029;51.054;13.798;2023-07-29T11:00:59;99528.91;;;29.30;47.83
76519;BME280;67029;51.054;13.798;2023-07-29T11:03:29;99522.81;;;29.22;47.62
76519;BME280;67029;51.054;13.798;2023-07-29T11:06:04;99521.69;;;29.20;47.47
76519;BME280;67029;51.054;13.798;2023-07-29T11:08:30;99524.36;;;29.24;47.50
76519;BME280;67029;51.054;13.798;2023-07-29T11:11:02;99520.33;;;29.24;47.53
76519;BME280;67029;51.054;13.798;2023-07-29T11:13:33;99515.25;;;29.20;47.48
76519;BME280;67029;51.054;13.798;2023-07-29T11:16:05;99518.44;;;29.27;47.47
76519;BME280;67029;51.054;13.798;2023-07-29T11:18:35;99509.44;;;29.33;47.44
76519;BME280;67029;51.054;13.798;2023-07-29T11:21:04;99506.73;;;29.35;47.55
76519;BME280;67029;51.054;13.798;2023-07-29T11:23:35;99500.61;;;29.39;47.66
76519;BME280;67029;51.054;13.798;2023-07-29T11:26:04;99502.12;;;29.42;47.54
76519;BME280;67029;51.054;13.798;2023-07-29T11:28:38;99514.39;;;29.44;47.31
76519;BME280;67029;51.054;13.798;2023-07-29T11:31:04;99523.92;;;29.37;47.21
76519;BME280;67029;51.054;13.798;2023-07-29T11:33:34;99522.06;;;29.37;47.28
76519;BME280;67029;51.054;13.798;2023-07-29T11:36:04;99520.79;;;29.40;47.06
76519;BME280;67029;51.054;13.798;2023-07-29T11:38:34;99522.48;;;29.39;46.97
76519;BME280;67029;51.054;13.798;2023-07-29T11:41:04;99516.69;;;29.27;46.79
76519;BME280;67029;51.054;13.798;2023-07-29T11:43:35;99514.28;;;29.28;46.87
76519;BME280;67029;51.054;13.798;2023-07-29T11:46:05;99512.52;;;29.36;46.79
76519;BME280;67029;51.054;13.798;2023-07-29T11:48:35;99510.05;;;29.52;46.72
76519;BME280;67029;51.054;13.798;2023-07-29T11:51:05;99505.92;;;29.60;46.50
76519;BME280;67029;51.054;13.798;2023-07-29T11:53:36;99505.06;;;29.54;46.64
76519;BME280;67029;51.054;13.798;2023-07-29T11:56:06;99507.89;;;29.66;46.60
76519;BME280;67029;51.054;13.798;2023-07-29T11:58:37;99504.07;;;29.60;46.32
76519;BME280;67029;51.054;13.798;2023-07-29T12:01:07;99506.91;;;29.61;46.37
76519;BME280;67029;51.054;13.798;2023-07-29T12:03:37;99511.19;;;29.66;46.31
76519;BME280;67029;51.054;13.798;2023-07-29T12:06:07;99506.95;;;29.70;46.25
76519;BME280;67029;51.054;13.798;2023-07-29T12:08:37;99504.83;;;29.76;46.04
76519;BME280;67029;51.054;13.798;2023-07-29T12:11:08;99498.12;;;29.80;45.97
76519;BME280;67029;51.054;13.798;2023-07-29T12:13:38;99495.92;;;29.71;45.95
76519;BME280;67029;51.054;13.798;2023-07-29T12:16:08;99494.84;;;29.75;45.95
76519;BME280;67029;51.054;13.798;2023-07-29T12:18:38;99493.79;;;29.80;45.91
76519;BME280;67029;51.054;13.798;2023-07-29T12:21:08;99493.17;;;29.85;45.79
76519;BME280;67029;51.054;13.798;2023-07-29T12:23:38;99495.80;;;29.90;45.68
76519;BME280;67029;51.054;13.798;2023-07-29T12:26:08;99490.34;;;29.89;45.63
76519;BME280;67029;51.054;13.798;2023-07-29T12:28:38;99491.07;;;29.93;45.69
76519;BME280;67029;51.054;13.798;2023-07-29T12:31:09;99487.91;;;30.02;45.69
76519;BME280;67029;51.054;13.798;2023-07-29T12:33:39;99474.52;;;30.06;45.53
76519;BME280;67029;51.054;13.798;2023-07-29T12:36:09;99467.27;;;30.08;45.19
76519;BME280;67029;51.054;13.798;2023-07-29T12:38:42;99465.93;;;30.08;45.11
76519;BME280;67029;51.054;13.798;2023-07-29T12:41:10;99471.59;;;30.17;44.66
76519;BME280;67029;51.054;13.798;2023-07-29T12:43:40;99472.70;;;30.14;44.47
76519;BME280;67029;51.054;13.798;2023-07-29T12:46:10;99466.07;;;30.12;43.76
76519;BME280;67029;51.054;13.798;2023-07-29T12:48:40;99461.15;;;30.13;43.35
76519;BME280;67029;51.054;13.798;2023-07-29T12:51:10;99464.08;;;30.22;43.38
76519;BME280;67029;51.054;13.798;2023-07-29T12:53:40;99461.50;;;30.40;43.35
76519;BME280;67029;51.054;13.798;2023-07-29T12:56:10;99458.56;;;30.51;42.48
76519;BME280;67029;51.054;13.798;2023-07-29T12:58:40;99465.47;;;30.54;42.14
76519;BME280;67029;51.054;13.798;2023-07-29T13:01:10;99457.66;;;30.57;42.24
76519;BME280;67029;51.054;13.798;2023-07-29T13:03:40;99446.26;;;30.69;42.16
76519;BME280;67029;51.054;13.798;2023-07-29T13:06:11;99445.48;;;30.86;42.17
76519;BME280;67029;51.054;13.798;2023-07-29T13:08:41;99436.39;;;31.01;41.29